sensor_id;sensor_type;location;lat;lon;timestamp;P1;durP1;ratioP1;P2;durP2;ratioP2
31786;SDS011;18356;52.380;9.820;2023-02-28T00:00:16;14.90;;;7.10;;
31786;SDS011;18356;52.380;9.820;2023-02-28T00:02:43;20.73;;;7.33;;
31786;SDS011;18356;52.380;9.820;2023-02-28T00:05:10;16.20;;;7.53;;
31786;SDS011;18356;52.380;9.820;2023-02-28T00:07:36;16.67;;;8.20;;
31786;SDS011;18356;52.380;9.820;2023-02-28T00:10:03;20.30;;;8.47;;
31786;SDS011;18356;52.380;9.820;2023-02-28T00:12:31;21.60;;;9.80;;
31786;SDS011;18356;52.380;9.820;2023-02-28T00:14:57;22.17;;;8.70;;
31786;SDS011;18356;52.380;9.820;2023-02-28T00:17:23;17.87;;;9.00;;
31786;SDS011;18356;52.380;9.820;2023-02-28T00:19:50;18.37;;;8.97;;
31786;SDS011;18356;52.380;9.820;2023-02-28T00:22:17;26.37;;;8.70;;
31786;SDS011;18356;52.380;9.820;2023-02-28T00:24:44;17.57;;;7.73;;
31786;SDS011;18356;52.380;9.820;2023-02-28T00:27:10;16.47;;;7.33;;
31786;SDS011;18356;52.380;9.820;2023-02-28T00:29:36;15.60;;;7.20;;
31786;SDS011;18356;52.380;9.820;2023-02-28T00:32:02;15.93;;;6.93;;
31786;SDS011;18356;52.380;9.820;2023-02-28T00:34:29;18.70;;;7.33;;
31786;SDS011;18356;52.380;9.820;2023-02-28T00:36:55;13.63;;;6.43;;
31786;SDS011;18356;52.380;9.820;2023-02-28T00:39:21;15.57;;;6.53;;
31786;SDS011;18356;52.380;9.820;2023-02-28T00:41:47;14.70;;;5.97;;
31786;SDS011;18356;52.380;9.820;2023-02-28T00:44:13;14.17;;;7.13;;
31786;SDS011;18356;52.380;9.820;2023-02-28T00:46:39;12.37;;;6.50;;
31786;SDS011;18356;52.380;9.820;2023-02-28T00:49:05;19.70;;;6.77;;
31786;SDS011;18356;52.380;9.820;2023-02-28T00:51:31;15.80;;;6.67;;
31786;SDS011;18356;52.380;9.820;2023-02-28T00:53:57;14.77;;;7.03;;
31786;SDS011;18356;52.380;9.820;2023-02-28T00:56:23;18.57;;;7.23;;
31786;SDS011;18356;52.380;9.820;2023-02-28T00:58:49;18.37;;;7.17;;
31786;SDS011;18356;52.380;9.820;2023-02-28T01:01:15;16.27;;;7.30;;
31786;SDS011;18356;52.380;9.820;2023-02-28T01:03:41;15.33;;;7.10;;
31786;SDS011;18356;52.380;9.820;2023-02-28T01:06:07;20.47;;;7.23;;
31786;SDS011;18356;52.380;9.820;2023-02-28T01:08:33;16.60;;;6.43;;
31786;SDS011;18356;52.380;9.820;2023-02-28T01:11:06;14.77;;;6.93;;
31786;SDS011;18356;52.380;9.820;2023-02-28T01:13:32;16.63;;;6.80;;
31786;SDS011;18356;52.380;9.820;2023-02-28T01:15:58;16.43;;;6.20;;
31786;SDS011;18356;52.380;9.820;2023-02-28T01:18:24;17.07;;;7.43;;
31786;SDS011;18356;52.380;9.820;2023-02-28T01:20:50;15.07;;;6.73;;
31786;SDS011;18356;52.380;9.820;2023-02-28T01:23:18;19.97;;;6.47;;
31786;SDS011;18356;52.380;9.820;2023-02-28T01:25:44;14.10;;;6.87;;
31786;SDS011;18356;52.380;9.820;2023-02-28T01:28:10;19.10;;;6.50;;
31786;SDS011;18356;52.380;9.820;2023-02-28T01:30:36;18.00;;;6.70;;
31786;SDS011;18356;52.380;9.820;2023-02-28T01:33:02;14.50;;;6.20;;
31786;SDS011;18356;52.380;9.820;2023-02-28T01:35:28;13.93;;;6.30;;
31786;SDS011;18356;52.380;9.820;2023-02-28T01:37:54;16.23;;;6.50;;
31786;SDS011;18356;52.380;9.820;2023-02-28T01:40:20;13.83;;;6.63;;
31786;SDS011;18356;52.380;9.820;2023-02-28T01:42:46;17.43;;;6.90;;
31786;SDS011;18356;52.380;9.820;2023-02-28T01:45:20;15.10;;;6.83;;
31786;SDS011;18356;52.380;9.820;2023-02-28T01:47:48;14.60;;;7.63;;
31786;SDS011;18356;52.380;9.820;2023-02-28T01:50:20;14.50;;;6.93;;
31786;SDS011;18356;52.380;9.820;2023-02-28T01:52:47;17.33;;;7.07;;
31786;SDS011;18356;52.380;9.820;2023-02-28T01:55:14;17.63;;;6.47;;
31786;SDS011;18356;52.380;9.820;2023-02-28T01:57:41;12.13;;;6.40;;
31786;SDS011;18356;52.380;9.820;2023-02-28T02:00:12;16.57;;;7.33;;
31786;SDS011;18356;52.380;9.820;2023-02-28T02:02:41;18.87;;;6.70;;
31786;SDS011;18356;52.380;9.820;2023-02-28T02:05:12;13.50;;;6.67;;
31786;SDS011;18356;52.380;9.820;2023-02-28T02:07:40;20.40;;;8.37;;
31786;SDS011;18356;52.380;9.820;2023-02-28T02:12:46;19.07;;;6.83;;
31786;SDS011;18356;52.380;9.820;2023-02-28T02:15:31;14.27;;;6.83;;
31786;SDS011;18356;52.380;9.820;2023-02-28T02:17:59;14.53;;;6.73;;
31786;SDS011;18356;52.380;9.820;2023-02-28T02:41:14;14.17;;;6.47;;
31786;SDS011;18356;52.380;9.820;2023-02-28T02:43:50;14.43;;;5.93;;
31786;SDS011;18356;52.380;9.820;2023-02-28T02:46:21;14.47;;;6.13;;
31786;SDS011;18356;52.380;9.820;2023-02-28T02:48:49;15.10;;;7.77;;
31786;SDS011;18356;52.380;9.820;2023-02-28T02:51:17;16.60;;;8.10;;
31786;SDS011;18356;52.380;9.820;2023-02-28T02:53:50;15.70;;;6.80;;
31786;SDS011;18356;52.380;9.820;2023-02-28T02:56:18;19.87;;;8.43;;
31786;SDS011;18356;52.380;9.820;2023-02-28T02:58:45;16.40;;;6.90;;
31786;SDS011;18356;52.380;9.820;2023-02-28T03:01:14;18.20;;;8.73;;
31786;SDS011;18356;52.380;9.820;2023-02-28T03:03:41;13.80;;;6.67;;
31786;SDS011;18356;52.380;9.820;2023-02-28T03:06:08;16.80;;;8.80;;
31786;SDS011;18356;52.380;9.820;2023-02-28T03:08:36;16.80;;;7.50;;
31786;SDS011;18356;52.380;9.820;2023-02-28T03:11:04;14.80;;;7.27;;
31786;SDS011;18356;52.380;9.820;2023-02-28T03:18:43;20.73;;;7.30;;
31786;SDS011;18356;52.380;9.820;2023-02-28T03:21:25;14.83;;;7.47;;
31786;SDS011;18356;52.380;9.820;2023-02-28T03:26:27;17.10;;;7.83;;
31786;SDS011;18356;52.380;9.820;2023-02-28T03:31:51;19.07;;;9.03;;
31786;SDS011;18356;52.380;9.820;2023-02-28T03:36:47;15.20;;;7.23;;
31786;SDS011;18356;52.380;9.820;2023-02-28T03:39:16;15.97;;;7.67;;
31786;SDS011;18356;52.380;9.820;2023-02-28T03:41:43;14.97;;;7.60;;
31786;SDS011;18356;52.380;9.820;2023-02-28T03:44:16;19.97;;;7.83;;
31786;SDS011;18356;52.380;9.820;2023-02-28T03:46:48;14.37;;;7.27;;
31786;SDS011;18356;52.380;9.820;2023-02-28T03:49:28;18.13;;;6.97;;
31786;SDS011;18356;52.380;9.820;2023-02-28T03:51:56;15.97;;;8.50;;
31786;SDS011;18356;52.380;9.820;2023-02-28T03:54:27;18.17;;;7.23;;
31786;SDS011;18356;52.380;9.820;2023-02-28T03:57:05;17.93;;;6.93;;
31786;SDS011;18356;52.380;9.820;2023-02-28T04:02:00;17.53;;;7.47;;
31786;SDS011;18356;52.380;9.820;2023-02-28T04:04:26;13.37;;;7.03;;
31786;SDS011;18356;52.380;9.820;2023-02-28T04:06:52;14.53;;;6.37;;
31786;SDS011;18356;52.380;9.820;2023-02-28T04:09:19;17.63;;;7.37;;
31786;SDS011;18356;52.380;9.820;2023-02-28T04:11:53;16.40;;;7.07;;
31786;SDS011;18356;52.380;9.820;2023-02-28T04:14:22;14.90;;;7.47;;
31786;SDS011;18356;52.380;9.820;2023-02-28T04:16:48;16.50;;;7.20;;
31786;SDS011;18356;52.380;9.820;2023-02-28T04:19:16;15.73;;;7.40;;
31786;SDS011;18356;52.380;9.820;2023-02-28T04:21:46;13.77;;;7.10;;
31786;SDS011;18356;52.380;9.820;2023-02-28T04:24:13;14.83;;;7.17;;
31786;SDS011;18356;52.380;9.820;2023-02-28T04:26:41;13.43;;;6.57;;
31786;SDS011;18356;52.380;9.820;2023-02-28T04:29:08;13.67;;;8.00;;
31786;SDS011;18356;52.380;9.820;2023-02-28T04:31:34;13.23;;;6.90;;
31786;SDS011;18356;52.380;9.820;2023-02-28T04:34:01;15.97;;;7.30;;
31786;SDS011;18356;52.380;9.820;2023-02-28T04:36:27;16.57;;;7.77;;
31786;SDS011;18356;52.380;9.820;2023-02-28T04:38:53;19.40;;;7.57;;
31786;SDS011;18356;52.380;9.820;2023-02-28T04:41:19;16.20;;;7.47;;
31786;SDS011;18356;52.380;9.820;2023-02-28T04:43:45;13.23;;;7.00;;
31786;SDS011;18356;52.380;9.820;2023-02-28T04:46:11;13.80;;;7.23;;
31786;SDS011;18356;52.380;9.820;2023-02-28T04:48:38;15.17;;;7.27;;
31786;SDS011;18356;52.380;9.820;2023-02-28T04:51:09;16.00;;;7.20;;
31786;SDS011;18356;52.380;9.820;2023-02-28T04:53:35;17.63;;;6.97;;
31786;SDS011;18356;52.380;9.820;2023-02-28T04:56:01;14.67;;;6.77;;
31786;SDS011;18356;52.380;9.820;2023-02-28T04:58:27;18.77;;;7.90;;
31786;SDS011;18356;52.380;9.820;2023-02-28T05:00:55;20.93;;;7.60;;
31786;SDS011;18356;52.380;9.820;2023-02-28T05:03:26;17.03;;;8.60;;
31786;SDS011;18356;52.380;9.820;2023-02-28T05:05:52;15.10;;;6.80;;
31786;SDS011;18356;52.380;9.820;2023-02-28T05:08:18;13.73;;;6.93;;
31786;SDS011;18356;52.380;9.820;2023-02-28T05:10:44;12.47;;;6.80;;
31786;SDS011;18356;52.380;9.820;2023-02-28T05:13:11;14.93;;;7.13;;
31786;SDS011;18356;52.380;9.820;2023-02-28T05:15:37;14.77;;;7.90;;
31786;SDS011;18356;52.380;9.820;2023-02-28T05:18:03;15.00;;;7.70;;
31786;SDS011;18356;52.380;9.820;2023-02-28T05:20:29;15.87;;;8.17;;
31786;SDS011;18356;52.380;9.820;2023-02-28T05:22:55;15.97;;;7.80;;
31786;SDS011;18356;52.380;9.820;2023-02-28T05:25:22;15.70;;;6.80;;
31786;SDS011;18356;52.380;9.820;2023-02-28T05:27:48;26.50;;;9.03;;
31786;SDS011;18356;52.380;9.820;2023-02-28T05:30:14;18.30;;;8.00;;
31786;SDS011;18356;52.380;9.820;2023-02-28T05:32:40;17.00;;;8.57;;
31786;SDS011;18356;52.380;9.820;2023-02-28T05:35:10;23.53;;;9.40;;
31786;SDS011;18356;52.380;9.820;2023-02-28T05:37:37;17.77;;;9.97;;
31786;SDS011;18356;52.380;9.820;2023-02-28T05:40:03;19.97;;;8.53;;
31786;SDS011;18356;52.380;9.820;2023-02-28T05:42:35;16.70;;;8.17;;
31786;SDS011;18356;52.380;9.820;2023-02-28T05:45:03;17.23;;;7.93;;
31786;SDS011;18356;52.380;9.820;2023-02-28T05:47:29;21.60;;;8.00;;
31786;SDS011;18356;52.380;9.820;2023-02-28T05:49:55;18.07;;;8.30;;
31786;SDS011;18356;52.380;9.820;2023-02-28T05:52:21;19.10;;;8.67;;
31786;SDS011;18356;52.380;9.820;2023-02-28T05:54:47;18.10;;;8.80;;
31786;SDS011;18356;52.380;9.820;2023-02-28T05:57:13;16.43;;;9.17;;
31786;SDS011;18356;52.380;9.820;2023-02-28T05:59:39;15.97;;;7.30;;
31786;SDS011;18356;52.380;9.820;2023-02-28T06:02:05;14.60;;;7.63;;
31786;SDS011;18356;52.380;9.820;2023-02-28T06:04:31;17.63;;;8.87;;
31786;SDS011;18356;52.380;9.820;2023-02-28T06:06:57;18.37;;;8.97;;
31786;SDS011;18356;52.380;9.820;2023-02-28T06:09:23;16.20;;;8.50;;
31786;SDS011;18356;52.380;9.820;2023-02-28T06:11:50;22.97;;;8.80;;
31786;SDS011;18356;52.380;9.820;2023-02-28T06:14:16;15.97;;;8.13;;
31786;SDS011;18356;52.380;9.820;2023-02-28T06:16:42;17.70;;;9.20;;
31786;SDS011;18356;52.380;9.820;2023-02-28T06:19:09;16.07;;;7.60;;
31786;SDS011;18356;52.380;9.820;2023-02-28T06:21:35;15.17;;;7.63;;
31786;SDS011;18356;52.380;9.820;2023-02-28T06:24:01;17.77;;;9.23;;
31786;SDS011;18356;52.380;9.820;2023-02-28T06:26:27;21.70;;;7.87;;
31786;SDS011;18356;52.380;9.820;2023-02-28T06:28:53;16.73;;;7.40;;
31786;SDS011;18356;52.380;9.820;2023-02-28T06:31:19;15.03;;;8.40;;
31786;SDS011;18356;52.380;9.820;2023-02-28T06:33:46;18.83;;;8.70;;
31786;SDS011;18356;52.380;9.820;2023-02-28T06:36:12;15.70;;;8.43;;
31786;SDS011;18356;52.380;9.820;2023-02-28T06:38:39;16.57;;;8.27;;
31786;SDS011;18356;52.380;9.820;2023-02-28T06:41:06;17.73;;;9.37;;
31786;SDS011;18356;52.380;9.820;2023-02-28T06:43:34;21.40;;;8.90;;
31786;SDS011;18356;52.380;9.820;2023-02-28T06:46:01;19.93;;;9.23;;
31786;SDS011;18356;52.380;9.820;2023-02-28T06:48:27;15.30;;;8.40;;
31786;SDS011;18356;52.380;9.820;2023-02-28T06:51:13;20.43;;;7.67;;
31786;SDS011;18356;52.380;9.820;2023-02-28T06:53:39;18.73;;;9.70;;
31786;SDS011;18356;52.380;9.820;2023-02-28T06:56:06;17.83;;;8.63;;
31786;SDS011;18356;52.380;9.820;2023-02-28T06:58:33;22.40;;;9.60;;
31786;SDS011;18356;52.380;9.820;2023-02-28T07:00:59;14.27;;;8.00;;
31786;SDS011;18356;52.380;9.820;2023-02-28T07:03:26;19.07;;;8.37;;
31786;SDS011;18356;52.380;9.820;2023-02-28T07:05:52;15.53;;;8.20;;
31786;SDS011;18356;52.380;9.820;2023-02-28T07:08:18;19.00;;;8.50;;
31786;SDS011;18356;52.380;9.820;2023-02-28T07:10:44;23.40;;;9.50;;
31786;SDS011;18356;52.380;9.820;2023-02-28T07:13:10;25.27;;;10.70;;
31786;SDS011;18356;52.380;9.820;2023-02-28T07:15:36;23.43;;;9.80;;
31786;SDS011;18356;52.380;9.820;2023-02-28T07:18:02;19.20;;;9.93;;
31786;SDS011;18356;52.380;9.820;2023-02-28T07:20:29;23.47;;;10.63;;
31786;SDS011;18356;52.380;9.820;2023-02-28T07:22:55;21.33;;;10.00;;
31786;SDS011;18356;52.380;9.820;2023-02-28T07:25:25;21.87;;;10.33;;
31786;SDS011;18356;52.380;9.820;2023-02-28T07:27:51;20.43;;;9.47;;
31786;SDS011;18356;52.380;9.820;2023-02-28T07:30:17;17.90;;;9.87;;
31786;SDS011;18356;52.380;9.820;2023-02-28T07:32:43;19.30;;;9.73;;
31786;SDS011;18356;52.380;9.820;2023-02-28T07:35:09;28.33;;;10.07;;
31786;SDS011;18356;52.380;9.820;2023-02-28T07:37:36;27.53;;;11.40;;
31786;SDS011;18356;52.380;9.820;2023-02-28T07:40:05;26.00;;;10.17;;
31786;SDS011;18356;52.380;9.820;2023-02-28T07:42:33;25.10;;;10.70;;
31786;SDS011;18356;52.380;9.820;2023-02-28T07:44:59;31.03;;;10.47;;
31786;SDS011;18356;52.380;9.820;2023-02-28T07:47:25;23.57;;;10.73;;
31786;SDS011;18356;52.380;9.820;2023-02-28T07:49:52;36.37;;;11.00;;
31786;SDS011;18356;52.380;9.820;2023-02-28T07:52:18;23.33;;;9.80;;
31786;SDS011;18356;52.380;9.820;2023-02-28T07:54:43;25.10;;;10.10;;
31786;SDS011;18356;52.380;9.820;2023-02-28T07:57:09;19.67;;;9.47;;
31786;SDS011;18356;52.380;9.820;2023-02-28T07:59:36;25.57;;;9.90;;
31786;SDS011;18356;52.380;9.820;2023-02-28T08:02:02;25.20;;;10.30;;
31786;SDS011;18356;52.380;9.820;2023-02-28T08:04:28;25.60;;;9.20;;
31786;SDS011;18356;52.380;9.820;2023-02-28T08:06:57;20.00;;;8.80;;
31786;SDS011;18356;52.380;9.820;2023-02-28T08:09:23;18.40;;;8.37;;
31786;SDS011;18356;52.380;9.820;2023-02-28T08:11:49;19.90;;;8.70;;
31786;SDS011;18356;52.380;9.820;2023-02-28T08:14:15;21.40;;;8.87;;
31786;SDS011;18356;52.380;9.820;2023-02-28T08:16:41;24.00;;;9.10;;
31786;SDS011;18356;52.380;9.820;2023-02-28T08:19:08;20.33;;;8.80;;
31786;SDS011;18356;52.380;9.820;2023-02-28T08:21:34;16.67;;;8.30;;
31786;SDS011;18356;52.380;9.820;2023-02-28T08:24:00;13.50;;;7.50;;
31786;SDS011;18356;52.380;9.820;2023-02-28T08:26:26;15.43;;;7.27;;
31786;SDS011;18356;52.380;9.820;2023-02-28T08:28:52;12.37;;;7.00;;
31786;SDS011;18356;52.380;9.820;2023-02-28T08:31:18;14.33;;;7.10;;
31786;SDS011;18356;52.380;9.820;2023-02-28T08:33:45;15.83;;;6.23;;
31786;SDS011;18356;52.380;9.820;2023-02-28T08:36:13;14.77;;;6.53;;
31786;SDS011;18356;52.380;9.820;2023-02-28T08:38:40;12.97;;;5.93;;
31786;SDS011;18356;52.380;9.820;2023-02-28T08:41:07;11.93;;;5.97;;
31786;SDS011;18356;52.380;9.820;2023-02-28T08:43:34;12.53;;;5.63;;
31786;SDS011;18356;52.380;9.820;2023-02-28T08:45:59;13.70;;;4.77;;
31786;SDS011;18356;52.380;9.820;2023-02-28T08:48:26;13.20;;;5.17;;
31786;SDS011;18356;52.380;9.820;2023-02-28T08:50:57;18.17;;;4.87;;
31786;SDS011;18356;52.380;9.820;2023-02-28T08:53:23;13.27;;;5.30;;
31786;SDS011;18356;52.380;9.820;2023-02-28T08:55:59;15.60;;;5.53;;
31786;SDS011;18356;52.380;9.820;2023-02-28T08:58:25;12.33;;;5.00;;
31786;SDS011;18356;52.380;9.820;2023-02-28T09:00:51;9.43;;;5.60;;
31786;SDS011;18356;52.380;9.820;2023-02-28T09:03:17;13.97;;;6.10;;
31786;SDS011;18356;52.380;9.820;2023-02-28T09:05:54;14.10;;;4.80;;
31786;SDS011;18356;52.380;9.820;2023-02-28T09:08:20;11.13;;;4.27;;
31786;SDS011;18356;52.380;9.820;2023-02-28T09:10:46;12.30;;;5.23;;
31786;SDS011;18356;52.380;9.820;2023-02-28T09:13:12;12.80;;;4.03;;
31786;SDS011;18356;52.380;9.820;2023-02-28T09:15:38;8.43;;;4.20;;
31786;SDS011;18356;52.380;9.820;2023-02-28T09:18:04;8.07;;;3.83;;
31786;SDS011;18356;52.380;9.820;2023-02-28T09:20:30;13.30;;;4.20;;
31786;SDS011;18356;52.380;9.820;2023-02-28T09:22:56;12.37;;;3.57;;
31786;SDS011;18356;52.380;9.820;2023-02-28T09:25:22;16.10;;;4.17;;
31786;SDS011;18356;52.380;9.820;2023-02-28T09:27:48;12.17;;;3.67;;
31786;SDS011;18356;52.380;9.820;2023-02-28T09:30:14;9.80;;;3.20;;
31786;SDS011;18356;52.380;9.820;2023-02-28T09:32:41;10.07;;;3.20;;
31786;SDS011;18356;52.380;9.820;2023-02-28T09:35:07;7.03;;;2.80;;
31786;SDS011;18356;52.380;9.820;2023-02-28T09:37:38;5.27;;;2.90;;
31786;SDS011;18356;52.380;9.820;2023-02-28T09:40:04;8.67;;;2.53;;
31786;SDS011;18356;52.380;9.820;2023-02-28T09:42:31;6.17;;;2.37;;
31786;SDS011;18356;52.380;9.820;2023-02-28T09:44:58;10.07;;;2.77;;
31786;SDS011;18356;52.380;9.820;2023-02-28T09:47:39;7.27;;;2.57;;
31786;SDS011;18356;52.380;9.820;2023-02-28T09:50:17;10.57;;;2.37;;
31786;SDS011;18356;52.380;9.820;2023-02-28T09:52:45;8.87;;;2.60;;
31786;SDS011;18356;52.380;9.820;2023-02-28T09:55:33;9.93;;;2.40;;
31786;SDS011;18356;52.380;9.820;2023-02-28T09:57:57;11.20;;;2.53;;
31786;SDS011;18356;52.380;9.820;2023-02-28T10:00:30;7.80;;;1.73;;
31786;SDS011;18356;52.380;9.820;2023-02-28T10:03:05;10.90;;;2.80;;
31786;SDS011;18356;52.380;9.820;2023-02-28T10:05:39;8.90;;;2.47;;
31786;SDS011;18356;52.380;9.820;2023-02-28T10:08:10;8.70;;;1.97;;
31786;SDS011;18356;52.380;9.820;2023-02-28T10:10:41;6.60;;;2.53;;
31786;SDS011;18356;52.380;9.820;2023-02-28T10:13:31;6.70;;;2.27;;
31786;SDS011;18356;52.380;9.820;2023-02-28T10:16:01;4.50;;;2.00;;
31786;SDS011;18356;52.380;9.820;2023-02-28T10:18:30;8.97;;;2.50;;
31786;SDS011;18356;52.380;9.820;2023-02-28T10:21:01;9.20;;;2.50;;
31786;SDS011;18356;52.380;9.820;2023-02-28T10:23:30;6.20;;;2.30;;
31786;SDS011;18356;52.380;9.820;2023-02-28T10:26:11;8.67;;;2.20;;
31786;SDS011;18356;52.380;9.820;2023-02-28T10:28:38;7.07;;;2.43;;
31786;SDS011;18356;52.380;9.820;2023-02-28T10:31:04;7.03;;;2.10;;
31786;SDS011;18356;52.380;9.820;2023-02-28T10:33:31;5.23;;;1.97;;
31786;SDS011;18356;52.380;9.820;2023-02-28T10:35:59;5.53;;;2.50;;
31786;SDS011;18356;52.380;9.820;2023-02-28T10:38:27;7.97;;;2.50;;
31786;SDS011;18356;52.380;9.820;2023-02-28T10:41:13;5.00;;;1.67;;
31786;SDS011;18356;52.380;9.820;2023-02-28T10:43:40;5.43;;;2.03;;
31786;SDS011;18356;52.380;9.820;2023-02-28T10:51:01;4.70;;;1.70;;
31786;SDS011;18356;52.380;9.820;2023-02-28T10:53:50;7.23;;;1.80;;
31786;SDS011;18356;52.380;9.820;2023-02-28T11:01:12;3.10;;;1.40;;
31786;SDS011;18356;52.380;9.820;2023-02-28T11:03:39;3.63;;;1.47;;
31786;SDS011;18356;52.380;9.820;2023-02-28T11:06:06;3.77;;;1.40;;
31786;SDS011;18356;52.380;9.820;2023-02-28T11:08:33;7.17;;;1.40;;
31786;SDS011;18356;52.380;9.820;2023-02-28T11:11:01;3.63;;;1.23;;
31786;SDS011;18356;52.380;9.820;2023-02-28T11:13:31;5.40;;;1.30;;
31786;SDS011;18356;52.380;9.820;2023-02-28T11:16:00;5.20;;;1.40;;
31786;SDS011;18356;52.380;9.820;2023-02-28T11:20:55;6.20;;;1.20;;
31786;SDS011;18356;52.380;9.820;2023-02-28T11:23:23;2.33;;;0.90;;
31786;SDS011;18356;52.380;9.820;2023-02-28T11:25:52;9.77;;;2.03;;
31786;SDS011;18356;52.380;9.820;2023-02-28T11:28:35;3.10;;;1.37;;
31786;SDS011;18356;52.380;9.820;2023-02-28T11:31:03;6.27;;;1.50;;
31786;SDS011;18356;52.380;9.820;2023-02-28T11:33:31;9.13;;;2.07;;
31786;SDS011;18356;52.380;9.820;2023-02-28T11:36:02;5.60;;;1.60;;
31786;SDS011;18356;52.380;9.820;2023-02-28T11:38:28;12.97;;;1.77;;
31786;SDS011;18356;52.380;9.820;2023-02-28T11:51:41;8.23;;;2.00;;
31786;SDS011;18356;52.380;9.820;2023-02-28T11:56:38;15.00;;;2.67;;
31786;SDS011;18356;52.380;9.820;2023-02-28T12:07:18;6.57;;;2.00;;
31786;SDS011;18356;52.380;9.820;2023-02-28T12:12:24;6.00;;;1.60;;
31786;SDS011;18356;52.380;9.820;2023-02-28T12:17:51;7.57;;;2.40;;
31786;SDS011;18356;52.380;9.820;2023-02-28T12:28:10;4.17;;;2.40;;
31786;SDS011;18356;52.380;9.820;2023-02-28T12:30:38;5.27;;;2.60;;
31786;SDS011;18356;52.380;9.820;2023-02-28T12:33:11;4.40;;;2.37;;
31786;SDS011;18356;52.380;9.820;2023-02-28T12:35:47;7.20;;;2.90;;
31786;SDS011;18356;52.380;9.820;2023-02-28T12:43:45;7.23;;;2.87;;
31786;SDS011;18356;52.380;9.820;2023-02-28T12:46:25;7.67;;;3.10;;
31786;SDS011;18356;52.380;9.820;2023-02-28T12:48:55;5.17;;;2.83;;
31786;SDS011;18356;52.380;9.820;2023-02-28T12:51:22;6.37;;;3.00;;
31786;SDS011;18356;52.380;9.820;2023-02-28T12:54:00;7.73;;;3.03;;
31786;SDS011;18356;52.380;9.820;2023-02-28T12:56:33;5.70;;;3.20;;
31786;SDS011;18356;52.380;9.820;2023-02-28T12:59:45;8.87;;;3.20;;
31786;SDS011;18356;52.380;9.820;2023-02-28T13:01:57;6.87;;;3.00;;
31786;SDS011;18356;52.380;9.820;2023-02-28T13:06:59;9.10;;;3.20;;
31786;SDS011;18356;52.380;9.820;2023-02-28T13:09:29;7.17;;;3.03;;
31786;SDS011;18356;52.380;9.820;2023-02-28T13:11:55;5.67;;;2.90;;
31786;SDS011;18356;52.380;9.820;2023-02-28T13:14:26;6.97;;;3.23;;
31786;SDS011;18356;52.380;9.820;2023-02-28T13:19:35;9.83;;;2.80;;
31786;SDS011;18356;52.380;9.820;2023-02-28T13:22:03;8.73;;;3.23;;
31786;SDS011;18356;52.380;9.820;2023-02-28T13:24:48;8.87;;;3.13;;
31786;SDS011;18356;52.380;9.820;2023-02-28T13:29:42;7.27;;;3.20;;
31786;SDS011;18356;52.380;9.820;2023-02-28T13:34:42;7.43;;;3.10;;
31786;SDS011;18356;52.380;9.820;2023-02-28T13:42:57;6.93;;;2.97;;
31786;SDS011;18356;52.380;9.820;2023-02-28T13:50:15;6.03;;;3.23;;
31786;SDS011;18356;52.380;9.820;2023-02-28T13:52:47;6.77;;;3.03;;
31786;SDS011;18356;52.380;9.820;2023-02-28T13:58:08;8.67;;;3.43;;
31786;SDS011;18356;52.380;9.820;2023-02-28T14:05:46;8.17;;;3.57;;
31786;SDS011;18356;52.380;9.820;2023-02-28T14:08:14;8.97;;;3.50;;
31786;SDS011;18356;52.380;9.820;2023-02-28T14:10:44;6.70;;;2.90;;
31786;SDS011;18356;52.380;9.820;2023-02-28T14:15:59;6.13;;;2.53;;
31786;SDS011;18356;52.380;9.820;2023-02-28T14:18:27;7.83;;;2.60;;
31786;SDS011;18356;52.380;9.820;2023-02-28T14:28:48;8.67;;;2.57;;
31786;SDS011;18356;52.380;9.820;2023-02-28T14:31:28;8.73;;;2.90;;
31786;SDS011;18356;52.380;9.820;2023-02-28T14:34:02;5.17;;;2.70;;
31786;SDS011;18356;52.380;9.820;2023-02-28T14:36:33;5.20;;;2.60;;
31786;SDS011;18356;52.380;9.820;2023-02-28T14:39:22;7.03;;;3.10;;
31786;SDS011;18356;52.380;9.820;2023-02-28T14:41:47;4.90;;;2.43;;
31786;SDS011;18356;52.380;9.820;2023-02-28T14:44:18;5.43;;;2.63;;
31786;SDS011;18356;52.380;9.820;2023-02-28T14:46:45;5.50;;;2.57;;
31786;SDS011;18356;52.380;9.820;2023-02-28T14:49:24;6.17;;;3.40;;
31786;SDS011;18356;52.380;9.820;2023-02-28T14:54:37;6.90;;;2.90;;
31786;SDS011;18356;52.380;9.820;2023-02-28T14:57:03;5.10;;;2.53;;
31786;SDS011;18356;52.380;9.820;2023-02-28T15:04:41;5.47;;;2.73;;
31786;SDS011;18356;52.380;9.820;2023-02-28T15:07:11;6.43;;;2.70;;
31786;SDS011;18356;52.380;9.820;2023-02-28T15:09:38;10.10;;;3.53;;
31786;SDS011;18356;52.380;9.820;2023-02-28T15:12:04;8.23;;;3.90;;
31786;SDS011;18356;52.380;9.820;2023-02-28T15:14:31;8.23;;;3.37;;
31786;SDS011;18356;52.380;9.820;2023-02-28T15:17:02;5.23;;;2.63;;
31786;SDS011;18356;52.380;9.820;2023-02-28T15:22:04;6.10;;;3.27;;
31786;SDS011;18356;52.380;9.820;2023-02-28T15:27:02;6.03;;;3.10;;
31786;SDS011;18356;52.380;9.820;2023-02-28T15:29:30;6.23;;;3.20;;
31786;SDS011;18356;52.380;9.820;2023-02-28T15:32:04;8.90;;;3.60;;
31786;SDS011;18356;52.380;9.820;2023-02-28T15:34:38;16.43;;;3.57;;
31786;SDS011;18356;52.380;9.820;2023-02-28T15:39:49;6.53;;;3.30;;
31786;SDS011;18356;52.380;9.820;2023-02-28T15:42:19;6.47;;;3.40;;
31786;SDS011;18356;52.380;9.820;2023-02-28T15:44:45;6.33;;;3.00;;
31786;SDS011;18356;52.380;9.820;2023-02-28T15:47:25;6.13;;;2.93;;
31786;SDS011;18356;52.380;9.820;2023-02-28T15:50:10;5.80;;;3.23;;
31786;SDS011;18356;52.380;9.820;2023-02-28T15:52:39;7.00;;;3.35;;
31786;SDS011;18356;52.380;9.820;2023-02-28T15:55:09;7.07;;;3.30;;
31786;SDS011;18356;52.380;9.820;2023-02-28T15:57:38;7.07;;;3.50;;
31786;SDS011;18356;52.380;9.820;2023-02-28T16:00:05;5.60;;;3.10;;
31786;SDS011;18356;52.380;9.820;2023-02-28T16:02:33;8.90;;;3.80;;
31786;SDS011;18356;52.380;9.820;2023-02-28T16:05:00;5.67;;;3.20;;
31786;SDS011;18356;52.380;9.820;2023-02-28T16:07:26;6.80;;;3.27;;
31786;SDS011;18356;52.380;9.820;2023-02-28T16:09:52;9.27;;;4.10;;
31786;SDS011;18356;52.380;9.820;2023-02-28T16:12:19;6.87;;;3.43;;
31786;SDS011;18356;52.380;9.820;2023-02-28T16:14:46;10.00;;;3.20;;
31786;SDS011;18356;52.380;9.820;2023-02-28T16:17:22;6.17;;;3.40;;
31786;SDS011;18356;52.380;9.820;2023-02-28T16:19:48;6.60;;;3.73;;
31786;SDS011;18356;52.380;9.820;2023-02-28T16:22:14;8.80;;;3.30;;
31786;SDS011;18356;52.380;9.820;2023-02-28T16:24:40;7.87;;;3.50;;
31786;SDS011;18356;52.380;9.820;2023-02-28T16:27:07;13.10;;;3.50;;
31786;SDS011;18356;52.380;9.820;2023-02-28T16:29:36;8.80;;;3.23;;
31786;SDS011;18356;52.380;9.820;2023-02-28T16:32:05;10.17;;;3.77;;
31786;SDS011;18356;52.380;9.820;2023-02-28T16:34:31;12.00;;;4.00;;
31786;SDS011;18356;52.380;9.820;2023-02-28T16:36:57;11.07;;;3.47;;
31786;SDS011;18356;52.380;9.820;2023-02-28T16:39:23;8.03;;;3.40;;
31786;SDS011;18356;52.380;9.820;2023-02-28T16:41:50;8.90;;;3.40;;
31786;SDS011;18356;52.380;9.820;2023-02-28T16:44:29;6.53;;;3.57;;
31786;SDS011;18356;52.380;9.820;2023-02-28T16:46:57;9.73;;;3.63;;
31786;SDS011;18356;52.380;9.820;2023-02-28T16:49:25;9.80;;;4.13;;
31786;SDS011;18356;52.380;9.820;2023-02-28T16:51:51;6.93;;;3.90;;
31786;SDS011;18356;52.380;9.820;2023-02-28T16:54:17;8.37;;;4.27;;
31786;SDS011;18356;52.380;9.820;2023-02-28T16:56:44;12.10;;;4.53;;
31786;SDS011;18356;52.380;9.820;2023-02-28T16:59:11;8.80;;;4.27;;
31786;SDS011;18356;52.380;9.820;2023-02-28T17:01:37;10.80;;;4.00;;
31786;SDS011;18356;52.380;9.820;2023-02-28T17:04:03;8.57;;;4.30;;
31786;SDS011;18356;52.380;9.820;2023-02-28T17:06:29;7.40;;;4.37;;
31786;SDS011;18356;52.380;9.820;2023-02-28T17:08:56;15.60;;;4.70;;
31786;SDS011;18356;52.380;9.820;2023-02-28T17:11:23;8.47;;;4.80;;